sensor_id;sensor_type;location;lat;lon;timestamp;pressure;altitude;pressure_sealevel;temperature;humidity
80188;BME280;73735;52.134;5.436;2023-11-18T00:00:54;102531.19;;;5.37;89.86
80188;BME280;73735;52.134;5.436;2023-11-18T00:03:20;102532.16;;;5.34;89.43
80188;BME280;73735;52.134;5.436;2023-11-18T00:05:47;102519.94;;;5.35;89.70
80188;BME280;73735;52.134;5.436;2023-11-18T00:08:13;102531.31;;;5.34;89.50
80188;BME280;73735;52.134;5.436;2023-11-18T00:10:40;102529.59;;;5.32;89.82
80188;BME280;73735;52.134;5.436;2023-11-18T00:13:06;102529.66;;;5.31;89.84
80188;BME280;73735;52.134;5.436;2023-11-18T00:15:33;102525.34;;;5.28;89.49
80188;BME280;73735;52.134;5.436;2023-11-18T00:18:01;102524.41;;;5.31;90.05
80188;BME280;73735;52.134;5.436;2023-11-18T00:20:28;102531.34;;;5.32;89.62
80188;BME280;73735;52.134;5.436;2023-11-18T00:22:57;102533.13;;;5.31;89.78
80188;BME280;73735;52.134;5.436;2023-11-18T00:25:23;102537.53;;;5.29;89.68
80188;BME280;73735;52.134;5.436;2023-11-18T00:27:50;102539.22;;;5.30;89.84
80188;BME280;73735;52.134;5.436;2023-11-18T00:30:16;102533.13;;;5.31;89.66
80188;BME280;73735;52.134;5.436;2023-11-18T00:32:43;102528.75;;;5.32;89.50
80188;BME280;73735;52.134;5.436;2023-11-18T00:35:10;102521.75;;;5.32;89.31
80188;BME280;73735;52.134;5.436;2023-11-18T00:37:37;102517.41;;;5.33;89.63
80188;BME280;73735;52.134;5.436;2023-11-18T00:40:04;102510.41;;;5.34;89.51
80188;BME280;73735;52.134;5.436;2023-11-18T00:42:30;102513.97;;;5.31;89.40
80188;BME280;73735;52.134;5.436;2023-11-18T00:44:57;102507.00;;;5.31;89.66
80188;BME280;73735;52.134;5.436;2023-11-18T00:47:23;102514.91;;;5.28;89.66
80188;BME280;73735;52.134;5.436;2023-11-18T00:49:50;102512.25;;;5.30;89.69
80188;BME280;73735;52.134;5.436;2023-11-18T00:52:18;102521.81;;;5.31;89.84
80188;BME280;73735;52.134;5.436;2023-11-18T00:54:45;102527.06;;;5.29;89.41
80188;BME280;73735;52.134;5.436;2023-11-18T00:57:12;102528.88;;;5.27;89.74
80188;BME280;73735;52.134;5.436;2023-11-18T00:59:41;102526.28;;;5.26;89.53
80188;BME280;73735;52.134;5.436;2023-11-18T01:02:08;102535.88;;;5.25;89.34
80188;BME280;73735;52.134;5.436;2023-11-18T01:04:34;102541.16;;;5.24;89.52
80188;BME280;73735;52.134;5.436;2023-11-18T01:07:01;102545.50;;;5.23;89.35
80188;BME280;73735;52.134;5.436;2023-11-18T01:09:28;102543.75;;;5.24;89.17
80188;BME280;73735;52.134;5.436;2023-11-18T01:11:54;102537.69;;;5.23;89.08
80188;BME280;73735;52.134;5.436;2023-11-18T01:14:34;102543.84;;;5.21;89.16
80188;BME280;73735;52.134;5.436;2023-11-18T01:17:00;102536.09;;;5.19;88.84
80188;BME280;73735;52.134;5.436;2023-11-18T01:19:27;102544.75;;;5.20;89.27
80188;BME280;73735;52.134;5.436;2023-11-18T01:21:54;102541.22;;;5.21;89.33
80188;BME280;73735;52.134;5.436;2023-11-18T01:24:21;102549.13;;;5.19;89.18
80188;BME280;73735;52.134;5.436;2023-11-18T01:26:48;102545.59;;;5.20;88.97
80188;BME280;73735;52.134;5.436;2023-11-18T01:29:15;102549.06;;;5.21;89.39
80188;BME280;73735;52.134;5.436;2023-11-18T01:31:41;102548.13;;;5.23;88.98
80188;BME280;73735;52.134;5.436;2023-11-18T01:34:18;102543.72;;;5.25;89.13
80188;BME280;73735;52.134;5.436;2023-11-18T01:36:48;102534.09;;;5.27;89.10
80188;BME280;73735;52.134;5.436;2023-11-18T01:39:16;102546.22;;;5.30;89.07
80188;BME280;73735;52.134;5.436;2023-11-18T01:41:45;102534.88;;;5.31;88.98
80188;BME280;73735;52.134;5.436;2023-11-18T01:44:12;102538.34;;;5.31;89.03
80188;BME280;73735;52.134;5.436;2023-11-18T01:46:41;102536.56;;;5.32;89.38
80188;BME280;73735;52.134;5.436;2023-11-18T01:49:13;102537.44;;;5.32;89.34
80188;BME280;73735;52.134;5.436;2023-11-18T01:51:45;102535.75;;;5.30;89.25
80188;BME280;73735;52.134;5.436;2023-11-18T01:54:15;102534.91;;;5.29;89.59
80188;BME280;73735;52.134;5.436;2023-11-18T01:56:48;102528.88;;;5.27;89.43
80188;BME280;73735;52.134;5.436;2023-11-18T01:59:16;102529.66;;;5.31;89.92
80188;BME280;73735;52.134;5.436;2023-11-18T02:01:48;102528.78;;;5.30;89.95
80188;BME280;73735;52.134;5.436;2023-11-18T02:04:16;102530.38;;;5.35;90.27
80188;BME280;73735;52.134;5.436;2023-11-18T02:06:47;102529.47;;;5.36;89.90
80188;BME280;73735;52.134;5.436;2023-11-18T02:09:18;102527.88;;;5.31;90.23
80188;BME280;73735;52.134;5.436;2023-11-18T02:11:51;102534.78;;;5.34;90.02
80188;BME280;73735;52.134;5.436;2023-11-18T02:14:20;102538.13;;;5.38;90.50
80188;BME280;73735;52.134;5.436;2023-11-18T02:16:46;102538.06;;;5.41;90.15
80188;BME280;73735;52.134;5.436;2023-11-18T02:19:21;102544.09;;;5.43;90.30
80188;BME280;73735;52.134;5.436;2023-11-18T02:21:52;102537.09;;;5.43;89.91
80188;BME280;73735;52.134;5.436;2023-11-18T02:24:27;102538.88;;;5.43;90.13
80188;BME280;73735;52.134;5.436;2023-11-18T02:26:57;102543.16;;;5.45;90.55
80188;BME280;73735;52.134;5.436;2023-11-18T02:29:25;102544.00;;;5.46;90.25
80188;BME280;73735;52.134;5.436;2023-11-18T02:31:55;102538.78;;;5.46;89.98
80188;BME280;73735;52.134;5.436;2023-11-18T02:34:28;102544.06;;;5.44;90.18
80188;BME280;73735;52.134;5.436;2023-11-18T02:36:58;102539.69;;;5.45;90.29
80188;BME280;73735;52.134;5.436;2023-11-18T02:39:42;102538.88;;;5.43;89.99
80188;BME280;73735;52.134;5.436;2023-11-18T02:42:10;102528.41;;;5.43;90.20
80188;BME280;73735;52.134;5.436;2023-11-18T02:44:39;102527.56;;;5.42;90.14
80188;BME280;73735;52.134;5.436;2023-11-18T02:47:07;102524.94;;;5.42;90.58
80188;BME280;73735;52.134;5.436;2023-11-18T02:49:35;102536.25;;;5.43;90.37
80188;BME280;73735;52.134;5.436;2023-11-18T02:52:02;102519.69;;;5.44;90.43
80188;BME280;73735;52.134;5.436;2023-11-18T02:54:28;102509.25;;;5.44;90.23
80188;BME280;73735;52.134;5.436;2023-11-18T02:56:55;102515.34;;;5.43;90.25
80188;BME280;73735;52.134;5.436;2023-11-18T02:59:22;102504.97;;;5.41;90.04
80188;BME280;73735;52.134;5.436;2023-11-18T03:01:53;102504.06;;;5.42;90.23
80188;BME280;73735;52.134;5.436;2023-11-18T03:04:21;102504.09;;;5.41;90.17
80188;BME280;73735;52.134;5.436;2023-11-18T03:06:47;102504.13;;;5.39;90.26
80188;BME280;73735;52.134;5.436;2023-11-18T03:09:14;102499.81;;;5.38;90.33
80188;BME280;73735;52.134;5.436;2023-11-18T03:11:41;102501.50;;;5.41;90.00
80188;BME280;73735;52.134;5.436;2023-11-18T03:14:10;102498.84;;;5.42;90.46
80188;BME280;73735;52.134;5.436;2023-11-18T03:16:37;102504.00;;;5.44;90.15
80188;BME280;73735;52.134;5.436;2023-11-18T03:19:05;102504.06;;;5.42;90.34
80188;BME280;73735;52.134;5.436;2023-11-18T03:21:31;102504.91;;;5.43;90.26
80188;BME280;73735;52.134;5.436;2023-11-18T03:23:58;102505.00;;;5.40;90.27
80188;BME280;73735;52.134;5.436;2023-11-18T03:26:24;102492.78;;;5.40;89.98
80188;BME280;73735;52.134;5.436;2023-11-18T03:28:52;102491.84;;;5.43;89.84
80188;BME280;73735;52.134;5.436;2023-11-18T03:31:18;102485.72;;;5.44;90.10
80188;BME280;73735;52.134;5.436;2023-11-18T03:33:46;102487.50;;;5.43;90.09
80188;BME280;73735;52.134;5.436;2023-11-18T03:36:12;102489.31;;;5.40;90.24
80188;BME280;73735;52.134;5.436;2023-11-18T03:38:39;102485.78;;;5.42;90.41
80188;BME280;73735;52.134;5.436;2023-11-18T03:41:06;102472.66;;;5.44;89.96
80188;BME280;73735;52.134;5.436;2023-11-18T03:43:35;102469.16;;;5.45;89.98
80188;BME280;73735;52.134;5.436;2023-11-18T03:46:01;102469.97;;;5.47;89.89
80188;BME280;73735;52.134;5.436;2023-11-18T03:48:28;102467.34;;;5.47;89.92
80188;BME280;73735;52.134;5.436;2023-11-18T03:50:54;102456.06;;;5.46;90.42
80188;BME280;73735;52.134;5.436;2023-11-18T03:53:20;102451.69;;;5.47;90.17
80188;BME280;73735;52.134;5.436;2023-11-18T03:55:47;102449.94;;;5.47;90.28
80188;BME280;73735;52.134;5.436;2023-11-18T03:58:13;102442.09;;;5.47;90.11
80188;BME280;73735;52.134;5.436;2023-11-18T04:00:40;102435.97;;;5.48;90.16
80188;BME280;73735;52.134;5.436;2023-11-18T04:03:06;102433.28;;;5.50;90.06
80188;BME280;73735;52.134;5.436;2023-11-18T04:05:33;102426.25;;;5.52;90.33
80188;BME280;73735;52.134;5.436;2023-11-18T04:08:01;102416.72;;;5.51;90.33
80188;BME280;73735;52.134;5.436;2023-11-18T04:10:27;102414.94;;;5.51;90.24
80188;BME280;73735;52.134;5.436;2023-11-18T04:12:54;102409.72;;;5.51;90.52
80188;BME280;73735;52.134;5.436;2023-11-18T04:15:20;102414.84;;;5.54;90.65
80188;BME280;73735;52.134;5.436;2023-11-18T04:17:47;102422.75;;;5.53;90.63
80188;BME280;73735;52.134;5.436;2023-11-18T04:20:13;102421.88;;;5.52;90.21
80188;BME280;73735;52.134;5.436;2023-11-18T04:22:43;102428.00;;;5.51;90.28
80188;BME280;73735;52.134;5.436;2023-11-18T04:25:11;102417.53;;;5.53;90.50
80188;BME280;73735;52.134;5.436;2023-11-18T04:27:38;102408.81;;;5.52;90.27
80188;BME280;73735;52.134;5.436;2023-11-18T04:30:07;102395.81;;;5.51;90.10
80188;BME280;73735;52.134;5.436;2023-11-18T04:32:36;102395.81;;;5.51;90.52
80188;BME280;73735;52.134;5.436;2023-11-18T04:35:03;102397.53;;;5.52;90.27
80188;BME280;73735;52.134;5.436;2023-11-18T04:37:34;102389.72;;;5.50;90.60
80188;BME280;73735;52.134;5.436;2023-11-18T04:40:02;102381.84;;;5.52;90.65
80188;BME280;73735;52.134;5.436;2023-11-18T04:42:29;102377.47;;;5.52;90.77
80188;BME280;73735;52.134;5.436;2023-11-18T04:44:57;102385.28;;;5.54;90.67
80188;BME280;73735;52.134;5.436;2023-11-18T04:47:23;102379.16;;;5.55;90.69
80188;BME280;73735;52.134;5.436;2023-11-18T04:49:51;102371.22;;;5.58;90.87
80188;BME280;73735;52.134;5.436;2023-11-18T04:52:18;102361.63;;;5.58;90.32
80188;BME280;73735;52.134;5.436;2023-11-18T04:54:45;102360.66;;;5.61;90.57
80188;BME280;73735;52.134;5.436;2023-11-18T04:57:14;102359.81;;;5.60;90.62
80188;BME280;73735;52.134;5.436;2023-11-18T04:59:42;102367.69;;;5.59;90.95
80188;BME280;73735;52.134;5.436;2023-11-18T05:02:09;102357.16;;;5.62;90.70
80188;BME280;73735;52.134;5.436;2023-11-18T05:04:36;102364.88;;;5.65;91.00
80188;BME280;73735;52.134;5.436;2023-11-18T05:07:03;102367.59;;;5.62;90.43
80188;BME280;73735;52.134;5.436;2023-11-18T05:09:30;102369.38;;;5.61;90.85
80188;BME280;73735;52.134;5.436;2023-11-18T05:11:58;102369.38;;;5.61;90.85
80188;BME280;73735;52.134;5.436;2023-11-18T05:14:25;102385.84;;;5.63;90.49
80188;BME280;73735;52.134;5.436;2023-11-18T05:16:52;102377.16;;;5.63;90.98
80188;BME280;73735;52.134;5.436;2023-11-18T05:19:20;102365.00;;;5.62;90.97
80188;BME280;73735;52.134;5.436;2023-11-18T05:21:46;102364.00;;;5.64;90.97
80188;BME280;73735;52.134;5.436;2023-11-18T05:24:16;102354.31;;;5.68;90.63
80188;BME280;73735;52.134;5.436;2023-11-18T05:26:42;102350.84;;;5.67;91.02
80188;BME280;73735;52.134;5.436;2023-11-18T05:29:09;102343.06;;;5.66;90.58
80188;BME280;73735;52.134;5.436;2023-11-18T05:31:35;102335.22;;;5.66;90.95
80188;BME280;73735;52.134;5.436;2023-11-18T05:34:03;102348.28;;;5.66;90.60
80188;BME280;73735;52.134;5.436;2023-11-18T05:36:31;102353.41;;;5.69;91.12
80188;BME280;73735;52.134;5.436;2023-11-18T05:39:03;102348.09;;;5.72;91.04
80188;BME280;73735;52.134;5.436;2023-11-18T05:41:31;102344.69;;;5.70;90.84
80188;BME280;73735;52.134;5.436;2023-11-18T05:43:58;102349.91;;;5.70;90.78
80188;BME280;73735;52.134;5.436;2023-11-18T05:46:25;102346.38;;;5.71;90.42
80188;BME280;73735;52.134;5.436;2023-11-18T05:48:54;102342.81;;;5.74;90.93
80188;BME280;73735;52.134;5.436;2023-11-18T05:51:22;102339.25;;;5.76;90.79
80188;BME280;73735;52.134;5.436;2023-11-18T05:53:49;102335.78;;;5.76;90.86
80188;BME280;73735;52.134;5.436;2023-11-18T05:56:17;102338.41;;;5.76;90.54
80188;BME280;73735;52.134;5.436;2023-11-18T05:58:44;102317.59;;;5.73;90.46
80188;BME280;73735;52.134;5.436;2023-11-18T06:01:14;102317.50;;;5.76;90.91
80188;BME280;73735;52.134;5.436;2023-11-18T06:03:43;102314.88;;;5.76;90.89
80188;BME280;73735;52.134;5.436;2023-11-18T06:06:11;102313.13;;;5.76;90.40
80188;BME280;73735;52.134;5.436;2023-11-18T06:08:39;102321.75;;;5.78;90.43
80188;BME280;73735;52.134;5.436;2023-11-18T06:11:11;102320.78;;;5.81;90.73
80188;BME280;73735;52.134;5.436;2023-11-18T06:13:48;102321.69;;;5.80;90.35
80188;BME280;73735;52.134;5.436;2023-11-18T06:16:20;102311.19;;;5.81;90.81
80188;BME280;73735;52.134;5.436;2023-11-18T06:18:50;102302.44;;;5.82;90.69
80188;BME280;73735;52.134;5.436;2023-11-18T06:21:18;102301.53;;;5.83;90.39
80188;BME280;73735;52.134;5.436;2023-11-18T06:23:46;102300.63;;;5.84;90.58
80188;BME280;73735;52.134;5.436;2023-11-18T06:26:14;102303.25;;;5.84;90.56
80188;BME280;73735;52.134;5.436;2023-11-18T06:28:42;102305.00;;;5.84;90.23
80188;BME280;73735;52.134;5.436;2023-11-18T06:31:09;102300.63;;;5.84;90.04
80188;BME280;73735;52.134;5.436;2023-11-18T06:36:06;102288.47;;;5.83;90.27
80188;BME280;73735;52.134;5.436;2023-11-18T06:38:33;102294.59;;;5.82;90.41
80188;BME280;73735;52.134;5.436;2023-11-18T06:41:00;102298.06;;;5.83;90.43
80188;BME280;73735;52.134;5.436;2023-11-18T06:43:34;102299.81;;;5.82;89.77
80188;BME280;73735;52.134;5.436;2023-11-18T06:46:08;102304.16;;;5.83;90.36
80188;BME280;73735;52.134;5.436;2023-11-18T06:48:39;102308.47;;;5.84;90.41
80188;BME280;73735;52.134;5.436;2023-11-18T06:51:07;102301.47;;;5.85;90.10
80188;BME280;73735;52.134;5.436;2023-11-18T06:53:34;102304.91;;;5.87;90.45
80188;BME280;73735;52.134;5.436;2023-11-18T06:56:01;102301.38;;;5.88;90.45
80188;BME280;73735;52.134;5.436;2023-11-18T06:58:27;102305.75;;;5.87;89.93
80188;BME280;73735;52.134;5.436;2023-11-18T07:00:54;102312.72;;;5.88;90.32
80188;BME280;73735;52.134;5.436;2023-11-18T07:03:20;102310.97;;;5.89;89.92
80188;BME280;73735;52.134;5.436;2023-11-18T07:05:48;102303.13;;;5.89;89.80
80188;BME280;73735;52.134;5.436;2023-11-18T07:08:14;102302.16;;;5.91;89.69
80188;BME280;73735;52.134;5.436;2023-11-18T07:10:41;102297.75;;;5.93;89.76
80188;BME280;73735;52.134;5.436;2023-11-18T07:13:07;102293.34;;;5.94;89.76
80188;BME280;73735;52.134;5.436;2023-11-18T07:15:34;102295.94;;;5.94;89.85
80188;BME280;73735;52.134;5.436;2023-11-18T07:18:02;102308.97;;;5.95;89.62
80188;BME280;73735;52.134;5.436;2023-11-18T07:20:29;102308.06;;;5.96;89.97
80188;BME280;73735;52.134;5.436;2023-11-18T07:22:55;102308.75;;;6.01;89.50
80188;BME280;73735;52.134;5.436;2023-11-18T07:25:22;102312.28;;;6.00;89.59
80188;BME280;73735;52.134;5.436;2023-11-18T07:27:48;102309.66;;;6.00;89.42
80188;BME280;73735;52.134;5.436;2023-11-18T07:30:15;102314.78;;;6.04;89.47
80188;BME280;73735;52.134;5.436;2023-11-18T07:32:41;102320.06;;;6.02;89.57
80188;BME280;73735;52.134;5.436;2023-11-18T07:35:08;102325.41;;;5.99;89.54
80188;BME280;73735;52.134;5.436;2023-11-18T07:37:36;102323.50;;;6.04;89.52
80188;BME280;73735;52.134;5.436;2023-11-18T07:40:03;102333.84;;;6.07;89.84
80188;BME280;73735;52.134;5.436;2023-11-18T07:42:31;102331.28;;;6.06;89.58
80188;BME280;73735;52.134;5.436;2023-11-18T07:45:01;102330.47;;;6.04;89.39
80188;BME280;73735;52.134;5.436;2023-11-18T07:47:30;102324.44;;;6.01;89.30
80188;BME280;73735;52.134;5.436;2023-11-18T07:49:58;102319.22;;;6.01;89.24
80188;BME280;73735;52.134;5.436;2023-11-18T07:52:26;102305.34;;;5.99;89.15
80188;BME280;73735;52.134;5.436;2023-11-18T07:54:54;102309.63;;;6.02;89.75
80188;BME280;73735;52.134;5.436;2023-11-18T07:57:20;102305.25;;;6.03;89.48
80188;BME280;73735;52.134;5.436;2023-11-18T07:59:47;102294.78;;;6.03;89.51
80188;BME280;73735;52.134;5.436;2023-11-18T08:02:13;102301.72;;;6.04;89.37
80188;BME280;73735;52.134;5.436;2023-11-18T08:04:40;102285.97;;;6.05;89.20
80188;BME280;73735;52.134;5.436;2023-11-18T08:07:07;102283.44;;;6.04;89.06
80188;BME280;73735;52.134;5.436;2023-11-18T08:09:36;102285.13;;;6.05;89.21
80188;BME280;73735;52.134;5.436;2023-11-18T08:12:05;102283.28;;;6.08;89.23
80188;BME280;73735;52.134;5.436;2023-11-18T08:14:35;102274.56;;;6.08;89.50
80188;BME280;73735;52.134;5.436;2023-11-18T08:17:02;102271.97;;;6.08;89.54
80188;BME280;73735;52.134;5.436;2023-11-18T08:19:30;102266.78;;;6.06;89.27
80188;BME280;73735;52.134;5.436;2023-11-18T08:21:57;102271.97;;;6.08;89.72
80188;BME280;73735;52.134;5.436;2023-11-18T08:24:25;102263.25;;;6.07;89.61
80188;BME280;73735;52.134;5.436;2023-11-18T08:26:52;102254.50;;;6.08;89.60
80188;BME280;73735;52.134;5.436;2023-11-18T08:29:20;102264.03;;;6.09;89.47
80188;BME280;73735;52.134;5.436;2023-11-18T08:31:47;102266.59;;;6.11;89.79
80188;BME280;73735;52.134;5.436;2023-11-18T08:34:14;102254.31;;;6.13;89.31
80188;BME280;73735;52.134;5.436;2023-11-18T08:36:40;102248.19;;;6.14;89.19
80188;BME280;73735;52.134;5.436;2023-11-18T08:39:08;102242.09;;;6.13;89.85
80188;BME280;73735;52.134;5.436;2023-11-18T08:41:37;102234.25;;;6.13;89.28
80188;BME280;73735;52.134;5.436;2023-11-18T08:44:04;102229.78;;;6.17;89.44
80188;BME280;73735;52.134;5.436;2023-11-18T08:46:47;102225.22;;;6.22;89.46
80188;BME280;73735;52.134;5.436;2023-11-18T08:49:14;102230.38;;;6.23;89.03
80188;BME280;73735;52.134;5.436;2023-11-18T08:51:48;102232.81;;;6.28;89.24
80188;BME280;73735;52.134;5.436;2023-11-18T08:54:15;102231.91;;;6.29;89.56
80188;BME280;73735;52.134;5.436;2023-11-18T08:56:49;102223.97;;;6.32;89.31
80188;BME280;73735;52.134;5.436;2023-11-18T08:59:21;102211.72;;;6.32;89.29
80188;BME280;73735;52.134;5.436;2023-11-18T09:01:54;102213.38;;;6.35;88.77
80188;BME280;73735;52.134;5.436;2023-11-18T09:04:25;102214.94;;;6.39;89.13
80188;BME280;73735;52.134;5.436;2023-11-18T09:06:52;102215.69;;;6.43;89.04
80188;BME280;73735;52.134;5.436;2023-11-18T09:09:20;102211.31;;;6.43;89.04
80188;BME280;73735;52.134;5.436;2023-11-18T09:11:54;102188.63;;;6.44;88.70
80188;BME280;73735;52.134;5.436;2023-11-18T09:14:25;102185.03;;;6.46;88.87
80188;BME280;73735;52.134;5.436;2023-11-18T09:16:52;102181.50;;;6.47;88.48
80188;BME280;73735;52.134;5.436;2023-11-18T09:19:22;102178.47;;;6.58;88.53
80188;BME280;73735;52.134;5.436;2023-11-18T09:21:50;102174.19;;;6.55;88.64
80188;BME280;73735;52.134;5.436;2023-11-18T09:24:18;102159.34;;;6.56;88.83
80188;BME280;73735;52.134;5.436;2023-11-18T09:26:46;102160.25;;;6.55;88.51
80188;BME280;73735;52.134;5.436;2023-11-18T09:29:21;102158.50;;;6.55;88.78
80188;BME280;73735;52.134;5.436;2023-11-18T09:31:50;102151.50;;;6.56;88.79
80188;BME280;73735;52.134;5.436;2023-11-18T09:34:20;102147.97;;;6.57;88.71
80188;BME280;73735;52.134;5.436;2023-11-18T09:36:54;102147.91;;;6.58;88.76
80188;BME280;73735;52.134;5.436;2023-11-18T09:39:21;102143.53;;;6.59;88.88
80188;BME280;73735;52.134;5.436;2023-11-18T09:42:05;102132.22;;;6.58;88.53
80188;BME280;73735;52.134;5.436;2023-11-18T09:44:37;102122.66;;;6.57;88.66
80188;BME280;73735;52.134;5.436;2023-11-18T09:47:08;102106.06;;;6.58;88.83
80188;BME280;73735;52.134;5.436;2023-11-18T09:49:42;102105.13;;;6.59;88.91
80188;BME280;73735;52.134;5.436;2023-11-18T09:52:16;102107.81;;;6.58;88.97
80188;BME280;73735;52.134;5.436;2023-11-18T09:55:02;102104.34;;;6.57;89.19
80188;BME280;73735;52.134;5.436;2023-11-18T09:57:36;102104.22;;;6.60;89.47
80188;BME280;73735;52.134;5.436;2023-11-18T10:00:06;102114.69;;;6.60;89.21
80188;BME280;73735;52.134;5.436;2023-11-18T10:02:53;102115.53;;;6.61;89.51
80188;BME280;73735;52.134;5.436;2023-11-18T10:05:23;102104.09;;;6.63;89.49
80188;BME280;73735;52.134;5.436;2023-11-18T10:07:54;102122.41;;;6.63;89.86
80188;BME280;73735;52.134;5.436;2023-11-18T10:10:20;102111.09;;;6.63;89.91
80188;BME280;73735;52.134;5.436;2023-11-18T10:12:48;102118.94;;;6.63;90.09
80188;BME280;73735;52.134;5.436;2023-11-18T10:15:24;102099.72;;;6.64;89.85
80188;BME280;73735;52.134;5.436;2023-11-18T10:17:52;102093.50;;;6.66;90.32
80188;BME280;73735;52.134;5.436;2023-11-18T10:20:46;102100.56;;;6.64;90.38
80188;BME280;73735;52.134;5.436;2023-11-18T10:23:15;102094.50;;;6.64;90.21
80188;BME280;73735;52.134;5.436;2023-11-18T10:30:59;102104.84;;;6.67;90.28
80188;BME280;73735;52.134;5.436;2023-11-18T10:33:36;102096.03;;;6.68;90.55
80188;BME280;73735;52.134;5.436;2023-11-18T10:36:04;102099.66;;;6.65;90.50
80188;BME280;73735;52.134;5.436;2023-11-18T10:38:39;102082.13;;;6.67;90.96
80188;BME280;73735;52.134;5.436;2023-11-18T10:41:18;102069.88;;;6.68;90.63
80188;BME280;73735;52.134;5.436;2023-11-18T10:43:45;102067.19;;;6.69;91.02
80188;BME280;73735;52.134;5.436;2023-11-18T10:46:12;102064.44;;;6.72;91.00
80188;BME280;73735;52.134;5.436;2023-11-18T10:48:44;102064.44;;;6.72;90.94
80188;BME280;73735;52.134;5.436;2023-11-18T10:51:17;102051.38;;;6.72;90.87
80188;BME280;73735;52.134;5.436;2023-11-18T10:53:50;102055.75;;;6.72;90.84
80188;BME280;73735;52.134;5.436;2023-11-18T10:56:25;102056.59;;;6.72;91.19
80188;BME280;73735;52.134;5.436;2023-11-18T10:59:05;102038.34;;;6.71;90.74
80188;BME280;73735;52.134;5.436;2023-11-18T11:01:36;102038.22;;;6.74;91.32
80188;BME280;73735;52.134;5.436;2023-11-18T11:04:13;102032.00;;;6.77;91.30
80188;BME280;73735;52.134;5.436;2023-11-18T11:06:44;102031.88;;;6.80;91.24
80188;BME280;73735;52.134;5.436;2023-11-18T11:09:19;102024.09;;;6.78;91.26
80188;BME280;73735;52.134;5.436;2023-11-18T11:11:55;102023.19;;;6.79;91.11
80188;BME280;73735;52.134;5.436;2023-11-18T11:14:33;102029.69;;;6.89;91.07
80188;BME280;73735;52.134;5.436;2023-11-18T11:17:06;102025.44;;;6.87;91.19
80188;BME280;73735;52.134;5.436;2023-11-18T11:19:59;102012.34;;;6.87;91.23
80188;BME280;73735;52.134;5.436;2023-11-18T11:25:42;101962.56;;;6.88;91.38
80188;BME280;73735;52.134;5.436;2023-11-18T11:28:20;101953.00;;;6.87;91.63
80188;BME280;73735;52.134;5.436;2023-11-18T11:31:03;101930.31;;;6.88;91.57
80188;BME280;73735;52.134;5.436;2023-11-18T11:34:00;101896.13;;;6.91;91.26
80188;BME280;73735;52.134;5.436;2023-11-18T11:36:37;101896.84;;;6.94;91.72
80188;BME280;73735;52.134;5.436;2023-11-18T11:39:08;101905.63;;;7.12;91.50
80188;BME280;73735;52.134;5.436;2023-11-18T11:41:45;101901.13;;;7.14;91.43
80188;BME280;73735;52.134;5.436;2023-11-18T11:44:13;101899.75;;;7.07;91.34
80188;BME280;73735;52.134;5.436;2023-11-18T11:46:40;101899.03;;;7.03;91.59
80188;BME280;73735;52.134;5.436;2023-11-18T11:49:10;101889.53;;;7.01;91.61
80188;BME280;73735;52.134;5.436;2023-11-18T11:51:59;101887.72;;;7.03;91.47
80188;BME280;73735;52.134;5.436;2023-11-18T11:54:35;101879.78;;;7.04;91.77
80188;BME280;73735;52.134;5.436;2023-11-18T11:57:04;101849.22;;;7.05;91.85
80188;BME280;73735;52.134;5.436;2023-11-18T11:59:54;101836.00;;;7.08;92.02
80188;BME280;73735;52.134;5.436;2023-11-18T12:02:27;101831.59;;;7.08;92.13
80188;BME280;73735;52.134;5.436;2023-11-18T12:04:59;101830.69;;;7.10;91.77
80188;BME280;73735;52.134;5.436;2023-11-18T12:07:26;101838.47;;;7.11;92.15
80188;BME280;73735;52.134;5.436;2023-11-18T12:09:59;101818.19;;;7.15;92.17
80188;BME280;73735;52.134;5.436;2023-11-18T12:12:27;101824.28;;;7.15;92.24
80188;BME280;73735;52.134;5.436;2023-11-18T12:14:56;101812.81;;;7.18;92.31
80188;BME280;73735;52.134;5.436;2023-11-18T12:17:23;101810.97;;;7.20;92.13
80188;BME280;73735;52.134;5.436;2023-11-18T12:19:59;101806.44;;;7.23;92.00
80188;BME280;73735;52.134;5.436;2023-11-18T12:22:26;101799.38;;;7.25;91.90
80188;BME280;73735;52.134;5.436;2023-11-18T12:27:44;101794.72;;;7.30;92.47
80188;BME280;73735;52.134;5.436;2023-11-18T12:30:37;101790.25;;;7.32;92.61
80188;BME280;73735;52.134;5.436;2023-11-18T12:33:05;101753.44;;;7.35;92.13
80188;BME280;73735;52.134;5.436;2023-11-18T12:44:30;101733.97;;;7.41;92.23
80188;BME280;73735;52.134;5.436;2023-11-18T12:47:02;101731.25;;;7.42;92.29
80188;BME280;73735;52.134;5.436;2023-11-18T12:49:45;101724.88;;;7.81;92.03
80188;BME280;73735;52.134;5.436;2023-11-18T12:52:21;101718.75;;;7.65;91.97
80188;BME280;73735;52.134;5.436;2023-11-18T12:54:50;101709.50;;;7.58;92.07
80188;BME280;73735;52.134;5.436;2023-11-18T12:57:27;101659.03;;;7.54;92.21
80188;BME280;73735;52.134;5.436;2023-11-18T12:59:57;101608.41;;;7.54;92.33
80188;BME280;73735;52.134;5.436;2023-11-18T13:02:24;101588.38;;;7.53;92.17
80188;BME280;73735;52.134;5.436;2023-11-18T13:04:51;101601.47;;;7.53;92.13
80188;BME280;73735;52.134;5.436;2023-11-18T13:07:19;101611.03;;;7.54;92.14
80188;BME280;73735;52.134;5.436;2023-11-18T13:09:50;101596.31;;;7.51;92.15
80188;BME280;73735;52.134;5.436;2023-11-18T13:12:17;101612.03;;;7.51;92.36
80188;BME280;73735;52.134;5.436;2023-11-18T13:14:46;101627.75;;;7.51;92.65
80188;BME280;73735;52.134;5.436;2023-11-18T13:17:15;101621.50;;;7.54;92.55
80188;BME280;73735;52.134;5.436;2023-11-18T13:19:45;101608.69;;;7.65;92.57
80188;BME280;73735;52.134;5.436;2023-11-18T13:22:12;101624.47;;;7.63;92.56
80188;BME280;73735;52.134;5.436;2023-11-18T13:24:41;101628.88;;;7.63;92.24
80188;BME280;73735;52.134;5.436;2023-11-18T13:27:13;101616.69;;;7.62;92.34
80188;BME280;73735;52.134;5.436;2023-11-18T13:29:43;101608.84;;;7.62;92.75
80188;BME280;73735;52.134;5.436;2023-11-18T13:32:12;101603.50;;;7.63;92.49
80188;BME280;73735;52.134;5.436;2023-11-18T13:34:39;101600.03;;;7.63;92.54